North Castle, New York
Current Conditions -  °F | °C
As of 6:56 PM on Saturday 20 Dec 2014 (Local Time) from KHPN Reporting Station
Overcast Overcast  
Wind Chill: 23°   Ceiling: 2700
Heat Index: 30°   Visibility: 10mi
Dew Point: 20°   Wind: 7mph
Humidity: 66%   Direction: 350°N
Pressure: 30.26"   Gusts: NA
Location:  41.1347°N, 73.7005°W
Report Text: KHPN 202356Z 35006KT 10SM OVC027 M01/M07 A3026 RMK AO2 SLP258 T10111067 10000 21011 52008
Loading
Personal Weather Stations






























Interactive Weather Map New forecast layout! Learn more

10-Day Weather Forecast

Advertisements
Track Severe Weather on mobile